createdAt,value
2023-08-07T00:02:18.158Z,77.50
2023-08-07T00:04:45.219Z,76.90
2023-08-07T00:07:13.329Z,77.40
2023-08-07T00:09:40.274Z,77.00
2023-08-07T00:12:07.360Z,77.10
2023-08-07T00:14:35.085Z,76.30
2023-08-07T00:17:02.079Z,76.20
2023-08-07T00:19:31.411Z,76.00
2023-08-07T00:21:58.440Z,76.30
2023-08-07T00:24:26.497Z,76.20
2023-08-07T00:26:53.782Z,77.00
2023-08-07T00:29:20.961Z,77.40
2023-08-07T00:31:47.844Z,77.60
2023-08-07T00:34:14.818Z,76.90
2023-08-07T00:36:41.731Z,77.30
2023-08-07T00:39:09.584Z,77.70
2023-08-07T00:41:36.695Z,77.40
2023-08-07T00:44:03.709Z,76.80
2023-08-07T00:46:33.896Z,77.50
2023-08-07T00:49:02.130Z,77.40
2023-08-07T00:51:30.748Z,77.40
2023-08-07T00:53:58.158Z,76.50
2023-08-07T00:56:25.419Z,76.70
2023-08-07T00:58:52.761Z,76.90
2023-08-07T01:01:21.534Z,77.40
2023-08-07T01:03:48.507Z,77.30
2023-08-07T01:06:15.610Z,77.50
2023-08-07T01:08:43.013Z,77.00
2023-08-07T01:11:18.222Z,77.90
2023-08-07T01:14:01.979Z,77.70
2023-08-07T01:16:52.903Z,77.50
2023-08-07T01:19:28.941Z,76.90
2023-08-07T01:22:16.218Z,77.10
2023-08-07T01:24:45.207Z,78.10
2023-08-07T01:27:15.378Z,78.00
2023-08-07T01:29:46.358Z,78.20
2023-08-07T01:32:18.856Z,77.90
2023-08-07T01:34:48.020Z,78.00
2023-08-07T01:37:15.219Z,77.80
2023-08-07T01:39:45.339Z,77.50
2023-08-07T01:42:19.538Z,78.10
2023-08-07T01:44:46.410Z,77.80
2023-08-07T01:47:13.372Z,77.70
2023-08-07T01:49:41.759Z,77.80
2023-08-07T01:52:09.465Z,78.00
2023-08-07T01:54:36.443Z,77.80
2023-08-07T01:57:03.786Z,77.80
2023-08-07T01:59:30.843Z,78.20
2023-08-07T02:02:00.636Z,77.80
2023-08-07T02:04:27.742Z,77.70
2023-08-07T02:06:59.253Z,77.40
2023-08-07T02:09:26.235Z,77.30
2023-08-07T02:11:53.203Z,77.00
2023-08-07T02:14:20.440Z,77.00
2023-08-07T02:16:47.517Z,77.80
2023-08-07T02:19:14.421Z,77.70
2023-08-07T02:21:41.395Z,77.30
2023-08-07T02:24:08.403Z,77.40
2023-08-07T02:26:35.457Z,77.60
2023-08-07T02:29:04.038Z,78.00
2023-08-07T02:31:31.100Z,77.70
2023-08-07T02:33:58.011Z,77.60
2023-08-07T02:36:24.921Z,77.70
2023-08-07T02:38:53.010Z,78.00
2023-08-07T02:41:20.153Z,78.20
2023-08-07T02:43:49.534Z,78.30
2023-08-07T02:46:16.515Z,77.60
2023-08-07T02:48:45.702Z,78.00
2023-08-07T02:51:12.674Z,78.20
2023-08-07T02:53:39.704Z,78.30
2023-08-07T02:56:06.601Z,78.30
2023-08-07T02:58:33.535Z,78.60
2023-08-07T03:01:10.137Z,78.80
2023-08-07T03:03:37.139Z,78.20
2023-08-07T03:06:04.894Z,78.80
2023-08-07T03:08:31.918Z,78.30
2023-08-07T03:11:00.793Z,78.40
2023-08-07T03:13:28.710Z,78.60
2023-08-07T03:16:02.654Z,78.50
2023-08-07T03:18:30.507Z,78.40
2023-08-07T03:20:57.507Z,78.00
2023-08-07T03:23:27.117Z,78.30
2023-08-07T03:26:23.592Z,78.80
2023-08-07T03:28:51.298Z,78.10
2023-08-07T03:31:19.162Z,77.80
2023-08-07T03:33:46.342Z,78.10
2023-08-07T03:36:13.664Z,78.10
2023-08-07T03:38:40.626Z,77.50
2023-08-07T03:41:07.548Z,77.70
2023-08-07T03:43:34.728Z,77.90
2023-08-07T03:46:04.410Z,77.70
2023-08-07T03:48:32.675Z,77.80
2023-08-07T03:51:25.789Z,77.30
2023-08-07T03:53:54.084Z,77.00
2023-08-07T03:56:21.165Z,77.30
2023-08-07T03:58:51.445Z,77.00
2023-08-07T04:01:19.840Z,76.60
2023-08-07T04:03:49.607Z,77.20
2023-08-07T04:06:17.730Z,78.00
2023-08-07T04:08:46.868Z,77.90
2023-08-07T04:11:14.334Z,77.60
2023-08-07T04:13:41.294Z,77.00
2023-08-07T04:16:08.270Z,77.70
2023-08-07T04:18:36.574Z,77.70
2023-08-07T04:21:04.773Z,78.60
2023-08-07T04:23:32.806Z,77.60
2023-08-07T04:26:00.321Z,77.80
2023-08-07T04:28:31.017Z,78.10
2023-08-07T04:30:58.081Z,79.40
2023-08-07T04:33:25.136Z,80.20
2023-08-07T04:35:53.267Z,80.40
2023-08-07T04:38:22.036Z,80.70
2023-08-07T04:40:50.224Z,80.90
2023-08-07T04:43:23.039Z,81.00
2023-08-07T04:45:50.736Z,80.80
2023-08-07T04:48:22.054Z,80.30
2023-08-07T04:50:49.783Z,79.50
2023-08-07T04:53:16.740Z,79.80
2023-08-07T04:55:44.047Z,80.90
2023-08-07T04:58:13.390Z,81.00
2023-08-07T05:00:40.373Z,81.10
2023-08-07T05:03:10.318Z,81.30
2023-08-07T05:05:38.658Z,81.20
2023-08-07T05:08:05.671Z,81.30
2023-08-07T05:10:32.677Z,81.20
2023-08-07T05:12:59.936Z,81.30
2023-08-07T05:15:29.746Z,81.20
2023-08-07T05:17:57.866Z,81.40
2023-08-07T05:20:25.018Z,81.40
2023-08-07T05:22:51.937Z,81.40
2023-08-07T05:25:19.626Z,81.40
2023-08-07T05:27:47.550Z,81.60
2023-08-07T05:30:16.439Z,81.60
2023-08-07T05:32:44.037Z,81.40
2023-08-07T05:35:11.397Z,81.10
2023-08-07T05:37:39.801Z,80.80
2023-08-07T05:40:07.976Z,80.60
2023-08-07T05:42:36.263Z,80.50
2023-08-07T05:45:03.517Z,80.40
2023-08-07T05:47:30.631Z,80.20
2023-08-07T05:49:59.147Z,80.00
2023-08-07T05:52:26.321Z,79.90
2023-08-07T05:54:53.213Z,79.70
2023-08-07T05:57:20.580Z,79.70
2023-08-07T05:59:47.643Z,79.60
2023-08-07T06:02:14.654Z,79.50
2023-08-07T06:04:44.106Z,79.30
2023-08-07T06:07:11.588Z,79.40
2023-08-07T06:09:39.205Z,79.40
2023-08-07T06:12:10.831Z,79.50
2023-08-07T06:14:41.052Z,79.40
2023-08-07T06:17:08.178Z,79.30
2023-08-07T06:19:35.195Z,79.40
2023-08-07T06:22:02.394Z,79.10
2023-08-07T06:24:29.967Z,79.30
2023-08-07T06:26:58.244Z,79.40
2023-08-07T06:29:25.249Z,78.90
2023-08-07T06:31:52.327Z,79.10
2023-08-07T06:34:20.629Z,78.80
2023-08-07T06:36:47.638Z,78.80
2023-08-07T06:39:14.780Z,78.80
2023-08-07T06:41:44.780Z,79.10
2023-08-07T06:44:13.387Z,79.00
2023-08-07T06:46:40.385Z,79.10
2023-08-07T06:49:08.557Z,79.20
2023-08-07T06:51:35.600Z,79.40
2023-08-07T06:54:02.656Z,79.30
2023-08-07T06:56:29.658Z,79.20
2023-08-07T06:58:57.180Z,79.20
2023-08-07T07:01:24.195Z,79.10
2023-08-07T07:03:53.950Z,79.20
2023-08-07T07:06:24.685Z,78.90
2023-08-07T07:08:51.641Z,79.30
2023-08-07T07:11:21.167Z,79.20
2023-08-07T07:13:52.009Z,79.10
2023-08-07T07:16:21.952Z,79.00
2023-08-07T07:18:50.792Z,79.20
2023-08-07T07:21:18.196Z,79.10
2023-08-07T07:23:45.183Z,79.10
2023-08-07T07:26:12.855Z,79.40
2023-08-07T07:28:39.975Z,79.50
2023-08-07T07:31:10.034Z,79.10
2023-08-07T07:33:39.812Z,79.40
2023-08-07T07:36:08.935Z,79.60
2023-08-07T07:38:36.336Z,79.50
2023-08-07T07:41:07.232Z,79.40
2023-08-07T07:43:36.402Z,79.00
2023-08-07T07:46:06.430Z,79.40
2023-08-07T07:48:33.466Z,79.40
2023-08-07T07:51:01.918Z,79.20
2023-08-07T07:53:29.084Z,79.30
2023-08-07T07:55:56.276Z,79.40
2023-08-07T07:58:24.993Z,79.50
2023-08-07T08:00:54.856Z,79.60
2023-08-07T08:03:23.006Z,79.40
2023-08-07T08:05:54.432Z,79.70
2023-08-07T08:08:21.669Z,79.40
2023-08-07T08:10:49.410Z,79.10
2023-08-07T08:13:17.296Z,78.10
2023-08-07T08:15:45.420Z,78.50
2023-08-07T08:18:12.981Z,78.80
2023-08-07T08:20:40.571Z,78.80
2023-08-07T08:23:07.761Z,79.10
2023-08-07T08:25:34.683Z,79.10
2023-08-07T08:28:01.734Z,79.20
2023-08-07T08:30:30.271Z,79.30
2023-08-07T08:32:57.812Z,79.30
2023-08-07T08:35:26.032Z,79.20
2023-08-07T08:37:52.950Z,79.20
2023-08-07T08:40:20.487Z,79.20
2023-08-07T08:42:47.955Z,79.10
2023-08-07T08:45:16.132Z,79.20
2023-08-07T08:47:47.459Z,79.10
2023-08-07T08:50:16.052Z,79.20
2023-08-07T08:52:50.133Z,79.30
2023-08-07T08:55:17.385Z,79.20
2023-08-07T08:57:44.618Z,79.20
2023-08-07T09:00:26.679Z,79.30
2023-08-07T09:02:53.775Z,79.30
2023-08-07T09:05:21.948Z,79.30
2023-08-07T09:07:50.516Z,79.20
2023-08-07T09:10:18.011Z,79.40
2023-08-07T09:13:07.386Z,79.60
2023-08-07T09:15:38.247Z,79.50
2023-08-07T09:18:09.355Z,79.40
2023-08-07T09:20:40.680Z,79.30
2023-08-07T09:23:08.848Z,79.20
2023-08-07T09:25:36.572Z,79.20
2023-08-07T09:28:07.568Z,79.20
2023-08-07T09:30:36.658Z,79.50
2023-08-07T09:33:04.107Z,79.50
2023-08-07T09:35:33.663Z,79.50
2023-08-07T09:38:00.873Z,79.50
2023-08-07T09:40:27.995Z,79.50
2023-08-07T09:42:55.888Z,79.50
2023-08-07T09:45:29.028Z,79.30
2023-08-07T09:48:09.191Z,79.50
2023-08-07T09:50:36.311Z,79.30
2023-08-07T09:53:03.749Z,79.90
2023-08-07T09:55:31.117Z,80.00
2023-08-07T09:57:58.346Z,79.40
2023-08-07T10:00:26.181Z,78.80
2023-08-07T10:02:55.493Z,78.70
2023-08-07T10:05:22.920Z,78.90
2023-08-07T10:07:50.752Z,79.00
2023-08-07T10:10:18.754Z,79.10
2023-08-07T10:12:51.560Z,79.30
2023-08-07T10:15:19.616Z,79.20
2023-08-07T10:17:46.789Z,79.10
2023-08-07T10:20:14.227Z,79.20
2023-08-07T10:22:42.312Z,79.60
2023-08-07T10:25:10.044Z,80.00
2023-08-07T10:27:40.716Z,79.40
2023-08-07T10:30:10.532Z,79.70
2023-08-07T10:32:39.264Z,79.50
2023-08-07T10:35:08.599Z,79.50
2023-08-07T10:37:41.766Z,80.00
2023-08-07T10:40:30.750Z,79.50
2023-08-07T10:43:13.971Z,79.20
2023-08-07T10:45:41.217Z,78.90
2023-08-07T10:48:19.963Z,79.10
2023-08-07T10:50:56.016Z,78.60
2023-08-07T10:53:34.039Z,78.80
2023-08-07T10:56:05.420Z,78.90
2023-08-07T10:58:37.604Z,79.40
2023-08-07T11:01:29.032Z,79.60
2023-08-07T11:04:00.463Z,79.30
2023-08-07T11:06:34.584Z,76.80
2023-08-07T11:09:04.951Z,78.00
2023-08-07T11:11:55.837Z,78.40
2023-08-07T11:14:22.748Z,78.30
2023-08-07T11:16:51.847Z,78.50
2023-08-07T11:19:23.436Z,79.60
2023-08-07T11:21:52.358Z,78.60
2023-08-07T11:24:21.318Z,78.60
2023-08-07T11:26:48.275Z,79.20
2023-08-07T11:29:21.547Z,78.50
2023-08-07T11:31:49.595Z,79.10
2023-08-07T11:34:19.627Z,78.80
2023-08-07T11:36:48.318Z,78.70
2023-08-07T11:39:20.719Z,78.40
2023-08-07T11:41:53.780Z,78.40
2023-08-07T11:44:20.892Z,78.20
2023-08-07T11:46:48.159Z,78.20
2023-08-07T11:49:18.716Z,78.60
2023-08-07T11:51:48.535Z,78.50
2023-08-07T11:54:16.914Z,78.80
2023-08-07T11:56:47.870Z,78.70
2023-08-07T11:59:18.892Z,78.70
2023-08-07T12:01:47.483Z,78.70
2023-08-07T12:04:15.617Z,78.40
2023-08-07T12:06:55.374Z,78.80
2023-08-07T12:09:25.404Z,78.30
2023-08-07T12:11:58.447Z,78.50
2023-08-07T12:14:33.232Z,79.10
2023-08-07T12:17:03.775Z,79.30
2023-08-07T12:19:41.543Z,79.50
2023-08-07T12:22:12.314Z,79.30
2023-08-07T12:24:43.292Z,79.20
2023-08-07T12:27:10.558Z,79.30
2023-08-07T12:29:40.272Z,79.30
2023-08-07T12:32:07.623Z,78.80
2023-08-07T12:34:36.307Z,79.30
2023-08-07T12:37:23.926Z,76.90
2023-08-07T12:42:25.202Z,80.10
2023-08-07T12:44:52.627Z,79.60
2023-08-07T12:47:25.331Z,80.00
2023-08-07T12:49:52.305Z,79.30
2023-08-07T12:52:19.229Z,79.30
2023-08-07T12:54:46.156Z,78.80
2023-08-07T12:57:13.082Z,79.70
2023-08-07T12:59:41.219Z,80.90
2023-08-07T13:02:08.388Z,81.20
2023-08-07T13:04:35.400Z,79.90
2023-08-07T13:07:02.877Z,80.70
2023-08-07T13:09:32.075Z,82.20
2023-08-07T13:11:59.334Z,80.20
2023-08-07T13:14:26.622Z,80.90
2023-08-07T13:16:53.745Z,81.60
2023-08-07T13:19:21.140Z,81.60
2023-08-07T13:21:48.651Z,81.60
2023-08-07T13:24:18.952Z,80.10
2023-08-07T13:26:46.801Z,82.10
2023-08-07T13:29:14.321Z,79.80
2023-08-07T13:31:47.737Z,79.20
2023-08-07T13:34:15.117Z,82.10
2023-08-07T13:36:42.409Z,81.90
2023-08-07T13:39:10.407Z,81.90
2023-08-07T13:41:37.944Z,80.30
2023-08-07T13:44:06.881Z,81.60
2023-08-07T13:46:35.548Z,81.40
2023-08-07T13:49:04.072Z,81.40
2023-08-07T13:51:31.483Z,80.40
2023-08-07T13:53:58.955Z,81.60
2023-08-07T13:56:27.010Z,81.50
2023-08-07T13:58:56.071Z,81.70
2023-08-07T14:01:23.589Z,82.10
2023-08-07T14:03:50.959Z,81.30
2023-08-07T14:06:19.718Z,80.60
2023-08-07T14:08:48.306Z,80.20
2023-08-07T14:11:17.415Z,81.40
2023-08-07T14:13:45.531Z,81.90
2023-08-07T14:16:13.044Z,80.50
2023-08-07T14:18:41.446Z,81.60
2023-08-07T14:21:10.379Z,82.50
2023-08-07T14:23:39.122Z,82.10
2023-08-07T14:26:06.635Z,82.10
2023-08-07T14:28:35.623Z,81.20
2023-08-07T14:31:08.712Z,82.00
2023-08-07T14:33:36.396Z,81.30
2023-08-07T14:36:04.043Z,80.50
2023-08-07T14:38:31.680Z,80.60
2023-08-07T14:41:01.064Z,80.80
2023-08-07T14:43:34.794Z,80.90
2023-08-07T14:46:02.645Z,81.00
2023-08-07T14:48:30.684Z,81.50
2023-08-07T14:51:02.280Z,83.10
2023-08-07T14:53:29.892Z,82.50
2023-08-07T14:55:58.147Z,81.50
2023-08-07T14:58:25.653Z,82.80
2023-08-07T15:00:58.816Z,83.40
2023-08-07T15:03:26.368Z,83.20
2023-08-07T15:05:56.750Z,82.90
2023-08-07T15:08:24.381Z,82.20
2023-08-07T15:10:55.017Z,82.20
2023-08-07T15:13:24.952Z,82.10
2023-08-07T15:15:53.993Z,82.00
2023-08-07T15:18:22.346Z,80.80
2023-08-07T15:20:50.477Z,80.80
2023-08-07T15:23:17.992Z,82.30
2023-08-07T15:25:46.002Z,82.60
2023-08-07T15:28:14.698Z,82.60
2023-08-07T15:30:53.045Z,82.10
2023-08-07T15:33:23.640Z,82.70
2023-08-07T15:35:56.466Z,82.60
2023-08-07T15:38:28.000Z,81.00
2023-08-07T15:40:55.605Z,82.60
2023-08-07T15:43:23.287Z,81.70
2023-08-07T15:45:55.102Z,81.50
2023-08-07T15:48:23.381Z,83.00
2023-08-07T15:50:53.476Z,82.30
2023-08-07T15:53:22.015Z,82.60
2023-08-07T15:55:49.473Z,81.40
2023-08-07T15:58:18.420Z,82.30
2023-08-07T16:00:45.857Z,82.20
2023-08-07T16:03:13.294Z,82.40
2023-08-07T16:05:40.284Z,81.60
2023-08-07T16:08:09.405Z,82.20
2023-08-07T16:10:36.916Z,82.20
2023-08-07T16:13:04.718Z,81.70
2023-08-07T16:15:31.981Z,82.80
2023-08-07T16:17:59.951Z,82.80
2023-08-07T16:20:27.084Z,82.60
2023-08-07T16:22:54.151Z,82.30
2023-08-07T16:25:21.254Z,82.10
2023-08-07T16:27:52.593Z,82.00
2023-08-07T16:30:21.617Z,81.60
2023-08-07T16:32:48.627Z,81.60
2023-08-07T16:35:15.640Z,81.50
2023-08-07T16:37:45.526Z,81.50
2023-08-07T16:40:12.957Z,81.40
2023-08-07T16:42:40.055Z,81.40
2023-08-07T16:45:07.413Z,81.20
2023-08-07T16:47:34.360Z,81.30
2023-08-07T16:50:01.868Z,81.20
2023-08-07T16:52:28.886Z,81.20
2023-08-07T16:54:55.924Z,81.30
2023-08-07T16:57:23.341Z,81.10
2023-08-07T16:59:50.346Z,81.00
2023-08-07T17:02:17.424Z,81.20
2023-08-07T17:04:44.554Z,81.10
2023-08-07T17:07:12.255Z,81.00
2023-08-07T17:09:41.571Z,81.20
2023-08-07T17:12:10.128Z,81.30
2023-08-07T17:14:37.055Z,81.40
2023-08-07T17:17:04.300Z,81.10
2023-08-07T17:19:31.252Z,81.40
2023-08-07T17:21:58.554Z,81.20
2023-08-07T17:24:26.164Z,81.20
2023-08-07T17:26:53.070Z,80.90
2023-08-07T17:29:19.997Z,81.20
2023-08-07T17:31:49.939Z,81.50
2023-08-07T17:34:16.925Z,81.20
2023-08-07T17:36:44.129Z,81.20
2023-08-07T17:39:11.101Z,81.50
2023-08-07T17:41:38.087Z,81.00
2023-08-07T17:44:05.676Z,81.30
2023-08-07T17:46:33.692Z,81.00
2023-08-07T17:49:00.938Z,81.00
2023-08-07T17:51:29.996Z,81.10
2023-08-07T17:53:57.382Z,81.20
2023-08-07T17:56:24.666Z,80.80
2023-08-07T17:58:51.989Z,80.70
2023-08-07T18:01:20.818Z,80.50
2023-08-07T18:03:50.802Z,80.50
2023-08-07T18:06:17.742Z,80.40
2023-08-07T18:08:45.754Z,80.50
2023-08-07T18:11:12.746Z,81.40
2023-08-07T18:13:40.665Z,81.50
2023-08-07T18:16:07.728Z,81.20
2023-08-07T18:18:34.639Z,81.30
2023-08-07T18:21:01.533Z,81.30
2023-08-07T18:23:29.816Z,80.90
2023-08-07T18:25:56.716Z,80.90
2023-08-07T18:28:24.960Z,80.70
2023-08-07T18:30:52.113Z,81.00
2023-08-07T18:33:19.096Z,80.60
2023-08-07T18:35:46.165Z,80.60
2023-08-07T18:38:14.321Z,80.30
2023-08-07T18:40:41.191Z,80.80
2023-08-07T18:43:08.129Z,80.50
2023-08-07T18:45:35.242Z,81.20
2023-08-07T18:48:02.244Z,81.00
2023-08-07T18:50:29.337Z,80.10
2023-08-07T18:52:56.428Z,80.40
2023-08-07T18:55:23.918Z,80.40
2023-08-07T18:57:50.830Z,79.90
2023-08-07T19:00:18.450Z,80.20
2023-08-07T19:02:46.387Z,80.40
2023-08-07T19:05:13.511Z,80.00
2023-08-07T19:07:40.469Z,80.10
2023-08-07T19:10:07.903Z,79.70
2023-08-07T19:12:36.358Z,80.60
2023-08-07T19:15:04.854Z,80.30
2023-08-07T19:17:34.496Z,80.50
2023-08-07T19:20:01.681Z,80.80
2023-08-07T19:22:28.726Z,80.00
2023-08-07T19:24:55.774Z,79.60
2023-08-07T19:27:22.691Z,79.80
2023-08-07T19:29:49.635Z,80.20
2023-08-07T19:32:17.603Z,79.90
2023-08-07T19:34:47.108Z,79.80
2023-08-07T19:37:14.054Z,80.30
2023-08-07T19:39:40.999Z,80.60
2023-08-07T19:42:09.457Z,79.90
2023-08-07T19:44:39.161Z,80.50
2023-08-07T19:47:06.246Z,80.60
2023-08-07T19:49:33.239Z,80.60
2023-08-07T19:52:01.090Z,80.10
2023-08-07T19:54:29.520Z,80.60
2023-08-07T19:56:57.966Z,80.10
2023-08-07T19:59:38.567Z,79.30
2023-08-07T20:02:07.087Z,79.40
2023-08-07T20:04:34.584Z,80.00
2023-08-07T20:07:05.852Z,79.20
2023-08-07T20:09:39.872Z,80.10
2023-08-07T20:12:07.520Z,79.40
2023-08-07T20:14:39.431Z,79.70
2023-08-07T20:17:08.457Z,79.70
2023-08-07T20:19:35.607Z,79.90
2023-08-07T20:22:02.643Z,79.40
2023-08-07T20:24:30.065Z,79.80
2023-08-07T20:26:57.672Z,79.30
2023-08-07T20:29:26.087Z,79.60
2023-08-07T20:31:53.094Z,78.90
2023-08-07T20:34:20.559Z,79.30
2023-08-07T20:36:47.750Z,79.70
2023-08-07T20:39:15.545Z,79.50
2023-08-07T20:41:42.484Z,79.30
2023-08-07T20:44:09.413Z,79.40
2023-08-07T20:46:36.598Z,78.60
2023-08-07T20:49:04.318Z,79.50
2023-08-07T20:51:33.144Z,79.20
2023-08-07T20:54:00.550Z,78.50
2023-08-07T20:56:31.176Z,78.40
2023-08-07T20:58:58.106Z,79.00
2023-08-07T21:01:25.765Z,79.10
2023-08-07T21:03:52.680Z,79.20
2023-08-07T21:06:19.661Z,78.80
2023-08-07T21:08:48.468Z,79.00
2023-08-07T21:11:15.807Z,79.90
2023-08-07T21:13:42.830Z,79.40
2023-08-07T21:16:09.847Z,79.30
2023-08-07T21:18:38.129Z,79.30
2023-08-07T21:21:05.197Z,78.20
2023-08-07T21:23:33.566Z,78.30
2023-08-07T21:26:02.704Z,78.70
2023-08-07T21:28:29.767Z,78.90
2023-08-07T21:30:57.257Z,79.30
2023-08-07T21:33:27.448Z,79.60
2023-08-07T21:35:54.360Z,79.80
2023-08-07T21:38:21.250Z,80.10
2023-08-07T21:40:48.198Z,80.30
2023-08-07T21:43:15.094Z,80.90
2023-08-07T21:45:42.007Z,80.50
2023-08-07T21:48:09.050Z,80.60
2023-08-07T21:50:37.380Z,80.80
2023-08-07T21:53:06.193Z,80.80
2023-08-07T21:55:34.133Z,80.60
2023-08-07T21:58:01.152Z,80.90
2023-08-07T22:00:28.061Z,81.20
2023-08-07T22:02:55.197Z,81.10
2023-08-07T22:05:22.519Z,80.90
2023-08-07T22:07:50.126Z,81.00
2023-08-07T22:10:17.349Z,81.00
2023-08-07T22:12:44.340Z,81.80
2023-08-07T22:15:12.277Z,81.30
2023-08-07T22:17:40.118Z,81.50
2023-08-07T22:20:08.836Z,81.40
2023-08-07T22:22:36.090Z,81.70
2023-08-07T22:25:04.597Z,81.80
2023-08-07T22:27:31.644Z,82.00
2023-08-07T22:29:59.633Z,82.30
2023-08-07T22:32:26.671Z,82.50
2023-08-07T22:34:53.663Z,82.50
2023-08-07T22:37:21.676Z,82.60
2023-08-07T22:39:48.587Z,83.10
2023-08-07T22:42:15.526Z,83.40
2023-08-07T22:44:42.450Z,83.30
2023-08-07T22:47:09.384Z,83.60
2023-08-07T22:49:36.341Z,84.50
2023-08-07T22:52:03.395Z,83.70
2023-08-07T22:54:30.310Z,83.90
2023-08-07T22:56:57.207Z,83.80
2023-08-07T22:59:24.166Z,83.80
2023-08-07T23:01:52.362Z,84.00
2023-08-07T23:04:21.394Z,84.30
2023-08-07T23:06:48.348Z,84.50
2023-08-07T23:09:15.239Z,84.60
2023-08-07T23:11:43.457Z,85.00
2023-08-07T23:14:10.350Z,85.00
2023-08-07T23:16:37.282Z,85.20
2023-08-07T23:19:04.145Z,84.80
2023-08-07T23:21:31.070Z,85.30
2023-08-07T23:23:57.932Z,85.60
2023-08-07T23:26:24.927Z,85.70
2023-08-07T23:28:51.825Z,86.10
2023-08-07T23:31:18.793Z,85.60
2023-08-07T23:33:47.407Z,85.60
2023-08-07T23:36:14.396Z,85.50
2023-08-07T23:38:41.328Z,85.30
2023-08-07T23:41:10.690Z,85.30
2023-08-07T23:43:37.756Z,85.50
2023-08-07T23:46:04.853Z,85.60
2023-08-07T23:48:31.787Z,85.40
2023-08-07T23:51:01.083Z,85.20
2023-08-07T23:53:29.973Z,85.20
2023-08-07T23:55:57.105Z,85.00
2023-08-07T23:58:24.895Z,85.00
